• Join FlightAware (Why Join?)
  • Login
  • US Flag 
01:20AM EDT


 

Airport Tracker/Info


-or-


 

Live Flight TrackerFlight Track Log ✈ CSJ405 ✈ 30-Apr-2013 ✈ CYHM - CYMX

Flight Track Log - Related Links

Times and Time Zones

All times are in EDT time to prevent confusion due to time zone crossing. See the CSJ405 flight status page for this flight to view local times or setup timezone preferences in your user account.

Time Position Orientation Groundspeed Altitude Reporting Facility
EDT Latitude Longitude Course Direction KTS MPH feet Rate Location/Type
01:26AM 43.1667 -79.9000 360° North 20 23 900  Level Toronto Center
01:27AM 43.1667 -79.9000 360° North 40 46 800  Descending Toronto Center
01:28AM 43.1667 -79.9000 236° Southwest 70 81 900 480 Climbing Toronto Center
01:29AM 43.1500 -79.9333 236° Southwest 70 81 1,800 780 Climbing Toronto Center
01:30AM 43.1333 -79.9500 216° Southwest 80 92 2,500 660 Climbing Toronto Center
01:31AM 43.1500 -79.9833 304° West 90 104 3,200 780 Climbing Toronto Center
01:32AM 43.1833 -79.9333 48° Northeast 120 138 4,100 840 Climbing Toronto Center
01:33AM 43.2000 -79.9000 56° Northeast 120 138 4,900 720 Climbing Toronto Center
01:34AM 43.2167 -79.8667 56° Northeast 130 150 5,600 720 Climbing Toronto Center
01:35AM 43.2500 -79.8167 48° Northeast 130 150 6,400 780 Climbing Toronto Center
01:36AM 43.2667 -79.7667 65° Northeast 140 161 7,200 720 Climbing Toronto Center
01:37AM 43.2833 -79.7500 36° Northeast 140 161 7,900 660 Climbing Toronto Center
01:38AM 43.3167 -79.7000 47° Northeast 140 161 8,600 540 Climbing Toronto Center
01:39AM 43.3333 -79.6500 65° Northeast 150 173 9,000 180 Climbing Toronto Center
01:40AM 43.3667 -79.5833 55° Northeast 180 207 9,000  Level Toronto Center
01:41AM 43.4000 -79.5333 47° Northeast 190 219 9,000  Level Toronto Center
01:42AM 43.4333 -79.4667 55° Northeast 190 219 9,000  Level Toronto Center
01:43AM 43.4667 -79.4333 36° Northeast 190 219 9,000  Level Toronto Center
01:44AM 43.4833 -79.3500 75° East 190 219 9,000  Level Toronto Center
01:45AM 43.5167 -79.2833 55° Northeast 190 219 9,000  Level Toronto Center
01:46AM 43.5500 -79.2500 36° Northeast 180 207 9,000  Level Toronto Center
01:47AM 43.5667 -79.1667 75° East 180 207 9,000  Level Toronto Center
01:48AM 43.6000 -79.1000 55° Northeast 180 207 9,000  Level Toronto Center
01:49AM 43.6333 -79.0500 47° Northeast 180 207 9,000  Level Toronto Center
01:50AM 43.6500 -78.9833 71° East 180 207 9,000  Level Toronto Center
01:51AM 43.6833 -78.9333 47° Northeast 180 207 9,000  Level Toronto Center
01:52AM 43.7000 -78.8667 71° East 180 207 9,000  Level Toronto Center
01:53AM 43.7333 -78.8333 36° Northeast 180 207 9,000  Level Toronto Center
01:54AM 43.7667 -78.7500 61° Northeast 180 207 9,000  Level Toronto Center
01:55AM 43.7833 -78.6833 71° East 180 207 9,000  Level Toronto Center
01:56AM 43.8167 -78.6333 47° Northeast 180 207 9,000  Level Toronto Center
01:57AM 43.8333 -78.5667 71° East 180 207 9,000  Level Toronto Center
01:58AM 43.8667 -78.5167 47° Northeast 180 207 9,000  Level Toronto Center
01:59AM 43.8667 -78.4500 90° East 180 207 9,000  Level Toronto Center
02:00AM 43.9000 -78.4000 47° Northeast 180 207 9,000  Level Toronto Center
02:01AM 43.9333 -78.3333 55° Northeast 180 207 9,000  Level Toronto Center
02:02AM 43.9500 -78.2667 71° East 180 207 9,000  Level Toronto Center
02:03AM 43.9833 -78.2167 47° Northeast 180 207 9,000  Level Toronto Center
02:05AM 44.0138 -78.1480 58° Northeast  Level FlightAware Approximate
02:06AM 44.0667 -78.0333 58° Northeast 190 219 9,000  Level Toronto Center
02:07AM 44.0833 -77.9667 71° East 190 219 9,000  Level Toronto Center
02:08AM 44.1167 -77.9167 47° Northeast 190 219 9,000  Level Toronto Center
02:09AM 44.1500 -77.8500 55° Northeast 190 219 9,000  Level Toronto Center
02:10AM 44.1667 -77.7667 74° East 190 219 9,000  Level Toronto Center
02:11AM 44.2000 -77.7333 36° Northeast 190 219 9,000  Level Toronto Center
02:12AM 44.1907 -77.7460 58° Northeast  Level FlightAware Approximate
02:12AM 44.2333 -77.6500 61° Northeast 190 219 9,000  Level Toronto Center
02:13AM 44.2500 -77.5833 71° East 190 219 9,000  Level Toronto Center
02:14AM 44.2833 -77.5333 47° Northeast 190 219 9,000  Level Toronto Center
02:15AM 44.3167 -77.4667 55° Northeast 190 219 9,000  Level Toronto Center
02:16AM 44.3333 -77.4000 71° East 180 207 9,000  Level Toronto Center
02:17AM 44.3500 -77.3500 65° Northeast 180 207 9,000  Level Toronto Center
02:18AM 44.3667 -77.2833 71° East 180 207 9,000  Level Toronto Center
02:19AM 44.4000 -77.2000 61° Northeast 180 207 9,000  Level Toronto Center
02:20AM 44.4167 -77.1500 65° Northeast 180 207 9,000  Level Toronto Center
02:21AM 44.4500 -77.0833 55° Northeast 190 219 9,000  Level Toronto Center
02:22AM 44.4833 -77.0333 47° Northeast 190 219 9,000  Level Toronto Center
02:23AM 44.5000 -76.9667 71° East 180 207 9,000  Level Toronto Center
02:24AM 44.5333 -76.9000 55° Northeast 190 219 9,000 -120 Level Toronto Center
02:25AM 44.5667 -76.8500 47° Northeast 190 219 8,800 -600 Descending Toronto Center
02:26AM 44.5833 -76.7833 71° East 200 230 7,900 -780 Descending Toronto Center
02:27AM 44.6167 -76.7000 61° Northeast 210 242 7,300 -480 Descending Toronto Center
02:28AM 44.6333 -76.6333 71° East 190 219 7,000 -600 Descending Toronto Center
02:29AM 44.6500 -76.5667 71° East 190 219 6,200 -780 Descending Toronto Center
02:30AM 44.6833 -76.4833 61° Northeast 200 230 5,500 -600 Descending Toronto Center
02:31AM 44.7167 -76.4333 47° Northeast 190 219 5,000 -300 Descending Toronto Center
02:32AM 44.7333 -76.3667 71° East 180 207 5,000 60 Level Toronto Center
02:33AM 44.7667 -76.3000 55° Northeast 180 207 5,200 60 Climbing Toronto Center
02:34AM 44.7833 -76.2500 65° Northeast 180 207 5,200  Level Toronto Center
02:35AM 44.8167 -76.1833 55° Northeast 180 207 5,200  Level Toronto Center
02:36AM 44.8333 -76.1333 65° Northeast 180 207 5,200  Level Toronto Center
02:37AM 44.8500 -76.0500 74° East 180 207 5,200  Level Toronto Center
02:38AM 44.8667 -76.0000 65° Northeast 180 207 5,200  Level Toronto Center
02:39AM 44.9000 -75.9333 55° Northeast 180 207 5,200  Level Toronto Center
02:40AM 44.9167 -75.8833 65° Northeast 180 207 5,200  Level Toronto Center
02:41AM 44.9500 -75.8167 55° Northeast 180 207 5,200  Level Toronto Center
02:42AM 44.9667 -75.7500 71° East 180 207 5,200  Level Toronto Center
02:43AM 45.0000 -75.7000 47° Northeast 180 207 5,200  Level Toronto Center
02:44AM 45.0167 -75.6167 74° East 180 207 5,200  Level Toronto Center
02:45AM 45.0333 -75.5500 70° East 180 207 5,200  Level Toronto Center
02:46AM 45.0500 -75.5000 65° Northeast 180 207 5,200  Level Toronto Center
02:47AM 45.0833 -75.4333 55° Northeast 180 207 5,200  Level Toronto Center
02:48AM 45.1000 -75.3833 65° Northeast 180 207 5,200  Level Toronto Center
02:49AM 45.1333 -75.3000 60° Northeast 180 207 5,200  Level Toronto Center
02:50AM 45.1500 -75.2333 70° East 180 207 5,200  Level Toronto Center
02:51AM 45.1833 -75.1833 47° Northeast 180 207 5,200  Level Toronto Center
02:52AM 45.1833 -75.1167 90° East 180 207 5,200  Level Toronto Center
02:53AM 45.2167 -75.0667 47° Northeast 180 207 5,200 -60 Level Toronto Center
02:54AM 45.2333 -74.9833 74° East 180 207 5,100 -60 Descending Toronto Center
02:55AM 45.2667 -74.9333 47° Northeast 180 207 5,100  Level Toronto Center
02:56AM 45.2833 -74.8667 70° East 170 196 5,100  Level Toronto Center
02:57AM 45.3167 -74.8167 47° Northeast 170 196 5,100  Level Toronto Center
02:58AM 45.3333 -74.7500 70° East 170 196 5,100  Level Toronto Center
02:59AM 45.3500 -74.7000 65° Northeast 170 196 5,100 -120 Level Toronto Center
03:00AM 45.3667 -74.6167 74° East 170 196 4,900 -420 Descending Toronto Center
03:01AM 45.4000 -74.5667 46° Northeast 180 207 4,300 -600 Descending Toronto Center
03:02AM 45.4167 -74.5000 70° East 190 219 3,800 -540 Descending Toronto Center
03:03AM 45.4500 -74.4333 55° Northeast 190 219 3,200 -360 Descending Montreal Center
03:04AM 45.4667 -74.3833 65° Northeast 180 207 3,100  Descending Montreal Center
03:05AM 45.5000 -74.3167 54° Northeast 180 207 3,200 -60 Climbing Montreal Center
03:06AM 45.5167 -74.2500 70° East 180 207 3,000 -120 Descending Montreal Center
03:07AM 45.5500 -74.2000 46° Northeast 180 207 3,000 -240 Level Montreal Center
03:08AM 45.5833 -74.1167 60° Northeast 190 219 2,600 -660 Descending Montreal Center
03:09AM 45.6167 -74.0833 35° Northeast 190 219 1,700 -960 Descending Montreal Center
03:10AM 45.6500 -74.0333 46° Northeast 160 184 700 -1,020 Descending Montreal Center